KTLH/TLH METAR and TAF weather

Enter ICAO airport designator
Station Type Date Time Source
KTLH METAR 2019/08/25 20:53 UTC NOAA

KTLH 252053Z 10009KT 10SM FEW036 SCT043 BKN060 32/24 A2993 RMK AO2 SLP134 T03220244 56020 $


Station Type Date Time Source
KTLH Decoded METAR 2019/08/25 20:53 UTC NOAA

Station name not available
Aug 25, 2019 - 04:53 PM EDT / 2019.08.25 2053 UTC
Wind: from the E (100 degrees) at 10 MPH (9 KT):0
Visibility: 10 mile(s):0
Sky conditions: mostly cloudy
Temperature: 90.0 F (32.2 C)
Heat index: 101.5 F (38.6 C):1
Dew Point: 75.9 F (24.4 C)
Relative Humidity: 63%
Pressure (altimeter): 29.93 in. Hg (1013 hPa)
Pressure tendency: 0.06 inches (2.0 hPa) lower than three hours ago
ob: KTLH 252053Z 10009KT 10SM FEW036 SCT043 BKN060 32/24 A2993 RMK AO2 SLP134 T03220244 56020
cycle: 21

Station Type Date Time Source
KTLH TAF 2019/08/25 18:30 UTC NOAA

TAF KTLH 251728Z 2518/2618 10008KT P6SM BKN035
FM252000 13008KT 6SM -TSRA BKN040CB
FM252300 09005KT P6SM SCT040 BKN100
FM261000 10004KT P6SM BKN015
FM261500 12007KT P6SM BKN025

Example: see airport list